sensor_id;sensor_type;location;lat;lon;timestamp;temperature;humidity
27567;DHT22;15006;48.584;9.186;2024-02-26T00:00:40;4.30;70.40
27567;DHT22;15006;48.584;9.186;2024-02-26T00:03:08;4.20;70.20
27567;DHT22;15006;48.584;9.186;2024-02-26T00:05:34;4.20;70.60
27567;DHT22;15006;48.584;9.186;2024-02-26T00:08:00;4.20;71.50
27567;DHT22;15006;48.584;9.186;2024-02-26T00:10:26;4.20;70.60
27567;DHT22;15006;48.584;9.186;2024-02-26T00:12:52;4.20;69.30
27567;DHT22;15006;48.584;9.186;2024-02-26T00:15:18;4.20;67.80
27567;DHT22;15006;48.584;9.186;2024-02-26T00:17:44;4.20;65.10
27567;DHT22;15006;48.584;9.186;2024-02-26T00:20:11;4.30;64.50
27567;DHT22;15006;48.584;9.186;2024-02-26T00:22:37;4.40;65.20
27567;DHT22;15006;48.584;9.186;2024-02-26T00:25:04;4.50;65.20
27567;DHT22;15006;48.584;9.186;2024-02-26T00:27:30;4.60;64.80
27567;DHT22;15006;48.584;9.186;2024-02-26T00:29:56;4.60;64.20
27567;DHT22;15006;48.584;9.186;2024-02-26T00:32:22;4.60;63.50
27567;DHT22;15006;48.584;9.186;2024-02-26T00:34:48;4.70;62.80
27567;DHT22;15006;48.584;9.186;2024-02-26T00:37:13;4.80;62.50
27567;DHT22;15006;48.584;9.186;2024-02-26T00:39:39;4.80;61.10
27567;DHT22;15006;48.584;9.186;2024-02-26T00:42:06;4.90;60.90
27567;DHT22;15006;48.584;9.186;2024-02-26T00:44:31;5.00;61.50
27567;DHT22;15006;48.584;9.186;2024-02-26T00:46:57;5.00;61.80
27567;DHT22;15006;48.584;9.186;2024-02-26T00:49:23;5.10;62.70
27567;DHT22;15006;48.584;9.186;2024-02-26T00:51:49;5.10;62.40
27567;DHT22;15006;48.584;9.186;2024-02-26T00:54:15;5.20;63.20
27567;DHT22;15006;48.584;9.186;2024-02-26T00:56:41;5.20;63.80
27567;DHT22;15006;48.584;9.186;2024-02-26T00:59:07;5.20;64.20
27567;DHT22;15006;48.584;9.186;2024-02-26T01:01:33;5.10;62.70
27567;DHT22;15006;48.584;9.186;2024-02-26T01:04:00;5.10;61.70
27567;DHT22;15006;48.584;9.186;2024-02-26T01:06:27;5.10;61.90
27567;DHT22;15006;48.584;9.186;2024-02-26T01:08:52;5.00;62.70
27567;DHT22;15006;48.584;9.186;2024-02-26T01:11:18;5.00;63.80
27567;DHT22;15006;48.584;9.186;2024-02-26T01:13:44;5.00;64.30
27567;DHT22;15006;48.584;9.186;2024-02-26T01:16:10;5.00;65.00
27567;DHT22;15006;48.584;9.186;2024-02-26T01:18:37;5.00;65.60
27567;DHT22;15006;48.584;9.186;2024-02-26T01:21:03;4.90;66.00
27567;DHT22;15006;48.584;9.186;2024-02-26T01:23:32;4.90;65.90
27567;DHT22;15006;48.584;9.186;2024-02-26T01:25:58;4.80;65.80
27567;DHT22;15006;48.584;9.186;2024-02-26T01:28:24;4.70;64.50
27567;DHT22;15006;48.584;9.186;2024-02-26T01:30:50;4.70;64.60
27567;DHT22;15006;48.584;9.186;2024-02-26T01:33:17;4.60;64.60
27567;DHT22;15006;48.584;9.186;2024-02-26T01:35:42;4.60;64.80
27567;DHT22;15006;48.584;9.186;2024-02-26T01:38:08;4.60;65.10
27567;DHT22;15006;48.584;9.186;2024-02-26T01:40:34;4.50;65.80
27567;DHT22;15006;48.584;9.186;2024-02-26T01:43:02;4.50;65.20
27567;DHT22;15006;48.584;9.186;2024-02-26T01:45:28;4.50;63.50
27567;DHT22;15006;48.584;9.186;2024-02-26T01:47:55;4.60;62.70
27567;DHT22;15006;48.584;9.186;2024-02-26T01:50:21;4.60;63.10
27567;DHT22;15006;48.584;9.186;2024-02-26T01:52:50;4.60;63.30
27567;DHT22;15006;48.584;9.186;2024-02-26T01:55:18;4.70;63.50
27567;DHT22;15006;48.584;9.186;2024-02-26T01:57:45;4.70;64.00
27567;DHT22;15006;48.584;9.186;2024-02-26T02:00:14;4.70;64.40
27567;DHT22;15006;48.584;9.186;2024-02-26T02:02:42;4.80;65.10
27567;DHT22;15006;48.584;9.186;2024-02-26T02:05:10;4.80;65.60
27567;DHT22;15006;48.584;9.186;2024-02-26T02:07:37;4.80;65.70
27567;DHT22;15006;48.584;9.186;2024-02-26T02:10:04;4.80;65.70
27567;DHT22;15006;48.584;9.186;2024-02-26T02:12:32;4.80;65.40
27567;DHT22;15006;48.584;9.186;2024-02-26T02:15:00;4.80;65.70
27567;DHT22;15006;48.584;9.186;2024-02-26T02:17:27;4.80;66.20
27567;DHT22;15006;48.584;9.186;2024-02-26T02:19:53;4.80;66.50
27567;DHT22;15006;48.584;9.186;2024-02-26T02:22:19;4.80;66.50
27567;DHT22;15006;48.584;9.186;2024-02-26T02:24:46;4.70;66.80
27567;DHT22;15006;48.584;9.186;2024-02-26T02:27:12;4.60;65.90
27567;DHT22;15006;48.584;9.186;2024-02-26T02:29:38;4.60;65.60
27567;DHT22;15006;48.584;9.186;2024-02-26T02:32:05;4.50;65.50
27567;DHT22;15006;48.584;9.186;2024-02-26T02:34:32;4.50;65.80
27567;DHT22;15006;48.584;9.186;2024-02-26T02:36:58;4.50;66.20
27567;DHT22;15006;48.584;9.186;2024-02-26T02:39:24;4.50;66.90
27567;DHT22;15006;48.584;9.186;2024-02-26T02:41:50;4.50;66.80
27567;DHT22;15006;48.584;9.186;2024-02-26T02:44:17;4.50;66.70
27567;DHT22;15006;48.584;9.186;2024-02-26T02:46:43;4.40;66.80
27567;DHT22;15006;48.584;9.186;2024-02-26T02:49:10;4.50;66.90
27567;DHT22;15006;48.584;9.186;2024-02-26T02:51:36;4.50;66.70
27567;DHT22;15006;48.584;9.186;2024-02-26T02:54:03;4.40;66.90
27567;DHT22;15006;48.584;9.186;2024-02-26T02:56:29;4.40;67.20
27567;DHT22;15006;48.584;9.186;2024-02-26T02:58:55;4.40;67.10
27567;DHT22;15006;48.584;9.186;2024-02-26T03:01:21;4.40;68.40
27567;DHT22;15006;48.584;9.186;2024-02-26T03:03:47;4.40;67.60
27567;DHT22;15006;48.584;9.186;2024-02-26T03:06:13;4.30;67.60
27567;DHT22;15006;48.584;9.186;2024-02-26T03:08:39;4.40;67.50
27567;DHT22;15006;48.584;9.186;2024-02-26T03:11:07;4.30;67.80
27567;DHT22;15006;48.584;9.186;2024-02-26T03:13:33;4.30;67.80
27567;DHT22;15006;48.584;9.186;2024-02-26T03:16:04;4.30;67.70
27567;DHT22;15006;48.584;9.186;2024-02-26T03:18:31;4.40;67.90
27567;DHT22;15006;48.584;9.186;2024-02-26T03:20:57;4.40;68.20
27567;DHT22;15006;48.584;9.186;2024-02-26T03:23:23;4.40;68.40
27567;DHT22;15006;48.584;9.186;2024-02-26T03:25:49;4.40;68.60
27567;DHT22;15006;48.584;9.186;2024-02-26T03:28:14;4.40;69.20
27567;DHT22;15006;48.584;9.186;2024-02-26T03:30:41;4.40;69.70
27567;DHT22;15006;48.584;9.186;2024-02-26T03:33:07;4.40;69.90
27567;DHT22;15006;48.584;9.186;2024-02-26T03:35:33;4.40;70.00
27567;DHT22;15006;48.584;9.186;2024-02-26T03:37:59;4.50;70.30
27567;DHT22;15006;48.584;9.186;2024-02-26T03:40:25;4.50;70.60
27567;DHT22;15006;48.584;9.186;2024-02-26T03:42:51;4.50;70.50
27567;DHT22;15006;48.584;9.186;2024-02-26T03:45:19;4.40;70.30
27567;DHT22;15006;48.584;9.186;2024-02-26T03:47:45;4.50;70.60
27567;DHT22;15006;48.584;9.186;2024-02-26T03:50:11;4.40;70.50
27567;DHT22;15006;48.584;9.186;2024-02-26T03:52:37;4.40;70.60
27567;DHT22;15006;48.584;9.186;2024-02-26T03:55:03;4.40;70.60
27567;DHT22;15006;48.584;9.186;2024-02-26T03:57:29;4.30;70.70
27567;DHT22;15006;48.584;9.186;2024-02-26T03:59:56;4.30;71.20
27567;DHT22;15006;48.584;9.186;2024-02-26T04:02:22;4.30;71.10
27567;DHT22;15006;48.584;9.186;2024-02-26T04:04:49;4.20;70.60
27567;DHT22;15006;48.584;9.186;2024-02-26T04:07:15;4.20;70.30
27567;DHT22;15006;48.584;9.186;2024-02-26T04:09:40;4.20;70.30
27567;DHT22;15006;48.584;9.186;2024-02-26T04:12:07;4.20;70.40
27567;DHT22;15006;48.584;9.186;2024-02-26T04:14:33;4.20;70.60
27567;DHT22;15006;48.584;9.186;2024-02-26T04:16:59;4.20;70.70
27567;DHT22;15006;48.584;9.186;2024-02-26T04:19:25;4.20;70.80
27567;DHT22;15006;48.584;9.186;2024-02-26T04:21:50;4.20;70.90
27567;DHT22;15006;48.584;9.186;2024-02-26T04:24:16;4.10;71.10
27567;DHT22;15006;48.584;9.186;2024-02-26T04:26:42;4.10;71.20
27567;DHT22;15006;48.584;9.186;2024-02-26T04:29:08;4.10;71.40
27567;DHT22;15006;48.584;9.186;2024-02-26T04:31:34;4.20;71.60
27567;DHT22;15006;48.584;9.186;2024-02-26T04:34:00;4.10;71.60
27567;DHT22;15006;48.584;9.186;2024-02-26T04:36:26;4.10;71.50
27567;DHT22;15006;48.584;9.186;2024-02-26T04:38:52;4.10;71.50
27567;DHT22;15006;48.584;9.186;2024-02-26T04:41:21;4.10;71.70
27567;DHT22;15006;48.584;9.186;2024-02-26T04:43:47;4.10;72.10
27567;DHT22;15006;48.584;9.186;2024-02-26T04:46:13;4.10;72.20
27567;DHT22;15006;48.584;9.186;2024-02-26T04:48:39;4.00;72.10
27567;DHT22;15006;48.584;9.186;2024-02-26T04:51:07;4.00;72.20
27567;DHT22;15006;48.584;9.186;2024-02-26T04:53:33;4.00;72.30
27567;DHT22;15006;48.584;9.186;2024-02-26T04:55:59;3.90;72.50
27567;DHT22;15006;48.584;9.186;2024-02-26T04:58:25;3.90;72.70
27567;DHT22;15006;48.584;9.186;2024-02-26T05:00:51;3.90;72.50
27567;DHT22;15006;48.584;9.186;2024-02-26T05:03:18;4.00;72.20
27567;DHT22;15006;48.584;9.186;2024-02-26T05:05:44;3.90;72.00
27567;DHT22;15006;48.584;9.186;2024-02-26T05:08:10;3.90;72.20
27567;DHT22;15006;48.584;9.186;2024-02-26T05:10:37;4.00;72.50
27567;DHT22;15006;48.584;9.186;2024-02-26T05:13:06;4.00;72.50
27567;DHT22;15006;48.584;9.186;2024-02-26T05:15:32;3.90;72.40
27567;DHT22;15006;48.584;9.186;2024-02-26T05:17:58;4.00;73.10
27567;DHT22;15006;48.584;9.186;2024-02-26T05:20:25;4.00;73.20
27567;DHT22;15006;48.584;9.186;2024-02-26T05:22:51;4.00;72.60
27567;DHT22;15006;48.584;9.186;2024-02-26T05:25:17;4.00;72.90
27567;DHT22;15006;48.584;9.186;2024-02-26T05:27:44;4.00;73.10
27567;DHT22;15006;48.584;9.186;2024-02-26T05:30:11;3.90;73.20
27567;DHT22;15006;48.584;9.186;2024-02-26T05:32:37;3.90;73.50
27567;DHT22;15006;48.584;9.186;2024-02-26T05:35:03;3.90;73.80
27567;DHT22;15006;48.584;9.186;2024-02-26T05:37:30;3.80;73.70
27567;DHT22;15006;48.584;9.186;2024-02-26T05:39:56;3.80;74.10
27567;DHT22;15006;48.584;9.186;2024-02-26T05:42:22;3.80;74.50
27567;DHT22;15006;48.584;9.186;2024-02-26T05:44:48;3.70;74.50
27567;DHT22;15006;48.584;9.186;2024-02-26T05:47:14;3.70;74.60
27567;DHT22;15006;48.584;9.186;2024-02-26T05:49:40;3.70;74.70
27567;DHT22;15006;48.584;9.186;2024-02-26T05:52:06;3.70;74.70
27567;DHT22;15006;48.584;9.186;2024-02-26T05:54:32;3.70;74.70
27567;DHT22;15006;48.584;9.186;2024-02-26T05:56:58;3.70;75.50
27567;DHT22;15006;48.584;9.186;2024-02-26T05:59:24;3.60;74.70
27567;DHT22;15006;48.584;9.186;2024-02-26T06:01:50;3.60;74.50
27567;DHT22;15006;48.584;9.186;2024-02-26T06:04:16;3.50;74.40
27567;DHT22;15006;48.584;9.186;2024-02-26T06:06:44;3.50;74.30
27567;DHT22;15006;48.584;9.186;2024-02-26T06:09:12;3.40;74.50
27567;DHT22;15006;48.584;9.186;2024-02-26T06:11:38;3.40;74.70
27567;DHT22;15006;48.584;9.186;2024-02-26T06:14:04;3.30;75.00
27567;DHT22;15006;48.584;9.186;2024-02-26T06:16:30;3.30;75.50
27567;DHT22;15006;48.584;9.186;2024-02-26T06:18:56;3.20;75.70
27567;DHT22;15006;48.584;9.186;2024-02-26T06:21:22;3.20;75.80
27567;DHT22;15006;48.584;9.186;2024-02-26T06:23:48;3.20;75.90
27567;DHT22;15006;48.584;9.186;2024-02-26T06:26:16;3.10;76.30
27567;DHT22;15006;48.584;9.186;2024-02-26T06:28:42;3.10;76.60
27567;DHT22;15006;48.584;9.186;2024-02-26T06:31:08;3.00;76.60
27567;DHT22;15006;48.584;9.186;2024-02-26T06:33:34;3.00;76.60
27567;DHT22;15006;48.584;9.186;2024-02-26T06:36:00;3.00;76.60
27567;DHT22;15006;48.584;9.186;2024-02-26T06:38:26;2.90;76.70
27567;DHT22;15006;48.584;9.186;2024-02-26T06:40:52;2.90;76.80
27567;DHT22;15006;48.584;9.186;2024-02-26T06:43:18;2.80;76.90
27567;DHT22;15006;48.584;9.186;2024-02-26T06:45:44;2.80;77.30
27567;DHT22;15006;48.584;9.186;2024-02-26T06:48:10;2.80;77.70
27567;DHT22;15006;48.584;9.186;2024-02-26T06:50:36;2.80;78.00
27567;DHT22;15006;48.584;9.186;2024-02-26T06:53:03;2.80;78.20
27567;DHT22;15006;48.584;9.186;2024-02-26T06:55:29;2.80;78.30
27567;DHT22;15006;48.584;9.186;2024-02-26T06:57:55;2.80;78.40
27567;DHT22;15006;48.584;9.186;2024-02-26T07:00:21;2.90;78.60
27567;DHT22;15006;48.584;9.186;2024-02-26T07:02:47;2.90;78.70
27567;DHT22;15006;48.584;9.186;2024-02-26T07:05:13;3.00;78.90
27567;DHT22;15006;48.584;9.186;2024-02-26T07:07:39;3.10;78.80
27567;DHT22;15006;48.584;9.186;2024-02-26T07:10:06;3.10;78.80
27567;DHT22;15006;48.584;9.186;2024-02-26T07:12:32;3.20;78.80
27567;DHT22;15006;48.584;9.186;2024-02-26T07:14:59;3.30;78.90
27567;DHT22;15006;48.584;9.186;2024-02-26T07:17:26;3.40;78.80
27567;DHT22;15006;48.584;9.186;2024-02-26T07:19:51;3.50;78.70
27567;DHT22;15006;48.584;9.186;2024-02-26T07:22:18;3.50;78.70
27567;DHT22;15006;48.584;9.186;2024-02-26T07:24:44;3.60;78.70
27567;DHT22;15006;48.584;9.186;2024-02-26T07:27:10;3.60;78.80
27567;DHT22;15006;48.584;9.186;2024-02-26T07:29:36;3.70;78.80
27567;DHT22;15006;48.584;9.186;2024-02-26T07:32:02;3.70;78.50
27567;DHT22;15006;48.584;9.186;2024-02-26T07:34:28;3.80;78.60
27567;DHT22;15006;48.584;9.186;2024-02-26T07:36:57;3.90;78.60
27567;DHT22;15006;48.584;9.186;2024-02-26T07:39:23;3.90;78.40
27567;DHT22;15006;48.584;9.186;2024-02-26T07:41:49;4.00;78.40
27567;DHT22;15006;48.584;9.186;2024-02-26T07:44:17;4.00;78.40
27567;DHT22;15006;48.584;9.186;2024-02-26T07:46:44;4.10;78.60
27567;DHT22;15006;48.584;9.186;2024-02-26T07:49:10;4.10;78.70
27567;DHT22;15006;48.584;9.186;2024-02-26T07:51:36;4.20;78.90
27567;DHT22;15006;48.584;9.186;2024-02-26T07:54:02;4.20;78.50
27567;DHT22;15006;48.584;9.186;2024-02-26T07:56:28;4.20;78.20
27567;DHT22;15006;48.584;9.186;2024-02-26T07:58:54;4.30;78.20
27567;DHT22;15006;48.584;9.186;2024-02-26T08:01:20;4.30;78.20
27567;DHT22;15006;48.584;9.186;2024-02-26T08:03:46;4.40;78.20
27567;DHT22;15006;48.584;9.186;2024-02-26T08:06:12;4.50;78.20
27567;DHT22;15006;48.584;9.186;2024-02-26T08:08:38;4.50;78.00
27567;DHT22;15006;48.584;9.186;2024-02-26T08:11:04;4.60;78.10
27567;DHT22;15006;48.584;9.186;2024-02-26T08:13:30;4.60;78.20
27567;DHT22;15006;48.584;9.186;2024-02-26T08:15:56;4.70;78.30
27567;DHT22;15006;48.584;9.186;2024-02-26T08:18:22;4.70;78.30
27567;DHT22;15006;48.584;9.186;2024-02-26T08:20:48;4.70;78.20
27567;DHT22;15006;48.584;9.186;2024-02-26T08:23:14;4.80;78.40
27567;DHT22;15006;48.584;9.186;2024-02-26T08:25:40;4.80;78.50
27567;DHT22;15006;48.584;9.186;2024-02-26T08:28:06;4.90;78.40
27567;DHT22;15006;48.584;9.186;2024-02-26T08:30:32;5.00;78.30
27567;DHT22;15006;48.584;9.186;2024-02-26T08:32:59;5.10;78.40
27567;DHT22;15006;48.584;9.186;2024-02-26T08:35:26;5.10;78.40
27567;DHT22;15006;48.584;9.186;2024-02-26T08:37:51;5.20;78.20
27567;DHT22;15006;48.584;9.186;2024-02-26T08:40:17;5.30;77.90
27567;DHT22;15006;48.584;9.186;2024-02-26T08:42:45;5.40;77.60
27567;DHT22;15006;48.584;9.186;2024-02-26T08:45:11;5.50;77.40
27567;DHT22;15006;48.584;9.186;2024-02-26T08:47:38;5.60;77.00
27567;DHT22;15006;48.584;9.186;2024-02-26T08:50:05;5.70;77.00
27567;DHT22;15006;48.584;9.186;2024-02-26T08:52:32;5.70;76.80
27567;DHT22;15006;48.584;9.186;2024-02-26T08:54:58;5.80;76.90
27567;DHT22;15006;48.584;9.186;2024-02-26T08:57:25;5.80;76.80
27567;DHT22;15006;48.584;9.186;2024-02-26T08:59:52;5.90;76.60
27567;DHT22;15006;48.584;9.186;2024-02-26T09:02:18;6.00;76.50
27567;DHT22;15006;48.584;9.186;2024-02-26T09:04:45;6.00;76.30
27567;DHT22;15006;48.584;9.186;2024-02-26T09:07:11;6.10;76.00
27567;DHT22;15006;48.584;9.186;2024-02-26T09:09:37;6.10;75.80
27567;DHT22;15006;48.584;9.186;2024-02-26T09:12:03;6.20;75.70
27567;DHT22;15006;48.584;9.186;2024-02-26T09:14:29;6.20;75.40
27567;DHT22;15006;48.584;9.186;2024-02-26T09:16:55;6.20;75.20
27567;DHT22;15006;48.584;9.186;2024-02-26T09:19:21;6.30;75.10
27567;DHT22;15006;48.584;9.186;2024-02-26T09:21:48;6.30;75.00
27567;DHT22;15006;48.584;9.186;2024-02-26T09:24:14;6.30;74.70
27567;DHT22;15006;48.584;9.186;2024-02-26T09:26:40;6.40;74.40
27567;DHT22;15006;48.584;9.186;2024-02-26T09:29:06;6.40;74.00
27567;DHT22;15006;48.584;9.186;2024-02-26T09:31:33;6.50;74.00
27567;DHT22;15006;48.584;9.186;2024-02-26T09:33:59;6.60;74.40
27567;DHT22;15006;48.584;9.186;2024-02-26T09:36:25;6.60;74.40
27567;DHT22;15006;48.584;9.186;2024-02-26T09:38:51;6.70;74.50
27567;DHT22;15006;48.584;9.186;2024-02-26T09:41:17;6.70;74.50
27567;DHT22;15006;48.584;9.186;2024-02-26T09:43:45;6.80;74.70
27567;DHT22;15006;48.584;9.186;2024-02-26T09:46:13;6.90;74.60
27567;DHT22;15006;48.584;9.186;2024-02-26T09:48:42;7.00;74.60
27567;DHT22;15006;48.584;9.186;2024-02-26T09:51:11;7.10;74.50
27567;DHT22;15006;48.584;9.186;2024-02-26T09:53:38;7.20;74.40
27567;DHT22;15006;48.584;9.186;2024-02-26T09:56:08;7.30;74.20
27567;DHT22;15006;48.584;9.186;2024-02-26T09:58:34;7.50;73.60
27567;DHT22;15006;48.584;9.186;2024-02-26T10:01:02;7.70;74.40
27567;DHT22;15006;48.584;9.186;2024-02-26T10:03:38;7.80;73.90
27567;DHT22;15006;48.584;9.186;2024-02-26T10:06:07;8.00;72.70
27567;DHT22;15006;48.584;9.186;2024-02-26T10:08:35;8.20;73.30
27567;DHT22;15006;48.584;9.186;2024-02-26T10:11:06;8.30;72.00
27567;DHT22;15006;48.584;9.186;2024-02-26T10:13:35;8.40;71.40
27567;DHT22;15006;48.584;9.186;2024-02-26T10:16:02;8.60;70.30
27567;DHT22;15006;48.584;9.186;2024-02-26T10:18:51;8.60;69.90
27567;DHT22;15006;48.584;9.186;2024-02-26T10:21:22;8.70;67.90
27567;DHT22;15006;48.584;9.186;2024-02-26T10:23:49;8.80;69.30
27567;DHT22;15006;48.584;9.186;2024-02-26T10:26:19;8.90;69.40
27567;DHT22;15006;48.584;9.186;2024-02-26T10:28:45;9.00;69.10
27567;DHT22;15006;48.584;9.186;2024-02-26T10:31:13;9.10;68.80
27567;DHT22;15006;48.584;9.186;2024-02-26T10:33:41;9.20;67.80
27567;DHT22;15006;48.584;9.186;2024-02-26T10:36:08;9.20;67.60
27567;DHT22;15006;48.584;9.186;2024-02-26T10:38:35;9.30;67.40
27567;DHT22;15006;48.584;9.186;2024-02-26T10:41:03;9.30;66.40
27567;DHT22;15006;48.584;9.186;2024-02-26T10:43:29;9.30;65.50
27567;DHT22;15006;48.584;9.186;2024-02-26T10:45:56;9.40;65.10
27567;DHT22;15006;48.584;9.186;2024-02-26T10:48:22;9.30;64.70
27567;DHT22;15006;48.584;9.186;2024-02-26T10:50:48;9.30;64.50
27567;DHT22;15006;48.584;9.186;2024-02-26T10:53:22;9.30;64.40
27567;DHT22;15006;48.584;9.186;2024-02-26T10:55:54;9.30;63.10
27567;DHT22;15006;48.584;9.186;2024-02-26T10:58:22;9.20;63.70
27567;DHT22;15006;48.584;9.186;2024-02-26T11:00:50;9.20;64.10
27567;DHT22;15006;48.584;9.186;2024-02-26T11:03:17;9.20;64.80
27567;DHT22;15006;48.584;9.186;2024-02-26T11:05:48;9.20;65.40
27567;DHT22;15006;48.584;9.186;2024-02-26T11:08:18;9.30;65.30
27567;DHT22;15006;48.584;9.186;2024-02-26T11:10:47;9.40;66.00
27567;DHT22;15006;48.584;9.186;2024-02-26T11:13:15;9.50;65.20
27567;DHT22;15006;48.584;9.186;2024-02-26T11:15:46;9.60;65.00
27567;DHT22;15006;48.584;9.186;2024-02-26T11:18:16;9.70;64.60
27567;DHT22;15006;48.584;9.186;2024-02-26T11:20:42;9.80;64.70
27567;DHT22;15006;48.584;9.186;2024-02-26T11:23:08;9.80;64.40
27567;DHT22;15006;48.584;9.186;2024-02-26T11:25:35;9.90;63.90
27567;DHT22;15006;48.584;9.186;2024-02-26T11:28:06;9.90;63.70
27567;DHT22;15006;48.584;9.186;2024-02-26T11:30:38;10.00;63.50
27567;DHT22;15006;48.584;9.186;2024-02-26T11:33:08;10.10;63.90
27567;DHT22;15006;48.584;9.186;2024-02-26T11:35:38;10.10;63.70
27567;DHT22;15006;48.584;9.186;2024-02-26T11:38:05;10.20;62.80
27567;DHT22;15006;48.584;9.186;2024-02-26T11:40:37;10.30;63.30
27567;DHT22;15006;48.584;9.186;2024-02-26T11:43:07;10.40;63.30
27567;DHT22;15006;48.584;9.186;2024-02-26T11:48:20;10.50;62.30
27567;DHT22;15006;48.584;9.186;2024-02-26T11:50:50;10.50;62.00
27567;DHT22;15006;48.584;9.186;2024-02-26T11:59:10;11.00;60.90
27567;DHT22;15006;48.584;9.186;2024-02-26T12:04:26;11.40;63.50
27567;DHT22;15006;48.584;9.186;2024-02-26T12:06:55;11.60;62.20
27567;DHT22;15006;48.584;9.186;2024-02-26T12:12:03;12.30;61.90
27567;DHT22;15006;48.584;9.186;2024-02-26T12:14:38;12.60;62.00
27567;DHT22;15006;48.584;9.186;2024-02-26T12:17:05;12.90;61.10
27567;DHT22;15006;48.584;9.186;2024-02-26T12:19:36;13.20;60.20
27567;DHT22;15006;48.584;9.186;2024-02-26T12:22:02;13.40;59.20
27567;DHT22;15006;48.584;9.186;2024-02-26T12:24:29;13.60;59.30
27567;DHT22;15006;48.584;9.186;2024-02-26T12:26:55;13.70;58.60
27567;DHT22;15006;48.584;9.186;2024-02-26T12:29:21;13.80;57.80
27567;DHT22;15006;48.584;9.186;2024-02-26T12:31:47;13.90;57.10
27567;DHT22;15006;48.584;9.186;2024-02-26T12:34:14;13.90;56.60
27567;DHT22;15006;48.584;9.186;2024-02-26T12:36:41;13.90;56.40
27567;DHT22;15006;48.584;9.186;2024-02-26T12:39:07;13.90;56.50
27567;DHT22;15006;48.584;9.186;2024-02-26T12:41:35;13.90;56.80
27567;DHT22;15006;48.584;9.186;2024-02-26T12:44:01;13.90;56.70
27567;DHT22;15006;48.584;9.186;2024-02-26T12:46:28;13.90;56.30
27567;DHT22;15006;48.584;9.186;2024-02-26T12:48:58;14.00;56.20
27567;DHT22;15006;48.584;9.186;2024-02-26T12:51:28;14.00;55.40
27567;DHT22;15006;48.584;9.186;2024-02-26T12:53:55;14.00;55.20
27567;DHT22;15006;48.584;9.186;2024-02-26T12:56:22;13.90;55.00
27567;DHT22;15006;48.584;9.186;2024-02-26T12:58:50;13.90;54.90
27567;DHT22;15006;48.584;9.186;2024-02-26T13:01:19;13.80;54.90
27567;DHT22;15006;48.584;9.186;2024-02-26T13:03:48;13.70;55.30
27567;DHT22;15006;48.584;9.186;2024-02-26T13:06:14;13.60;55.80
27567;DHT22;15006;48.584;9.186;2024-02-26T13:08:40;13.50;56.60
27567;DHT22;15006;48.584;9.186;2024-02-26T13:11:07;13.40;55.90
27567;DHT22;15006;48.584;9.186;2024-02-26T13:13:33;13.30;55.70
27567;DHT22;15006;48.584;9.186;2024-02-26T13:16:05;13.20;55.80
27567;DHT22;15006;48.584;9.186;2024-02-26T13:18:34;13.10;55.60
27567;DHT22;15006;48.584;9.186;2024-02-26T13:21:13;13.00;56.00
27567;DHT22;15006;48.584;9.186;2024-02-26T13:23:39;12.90;55.70
27567;DHT22;15006;48.584;9.186;2024-02-26T13:26:06;12.80;56.40
27567;DHT22;15006;48.584;9.186;2024-02-26T13:28:33;12.80;56.70
27567;DHT22;15006;48.584;9.186;2024-02-26T13:31:00;12.80;56.90
27567;DHT22;15006;48.584;9.186;2024-02-26T13:33:30;12.70;57.00
27567;DHT22;15006;48.584;9.186;2024-02-26T13:35:56;12.70;57.00
27567;DHT22;15006;48.584;9.186;2024-02-26T13:38:23;12.70;57.20
27567;DHT22;15006;48.584;9.186;2024-02-26T13:40:50;12.60;56.90
27567;DHT22;15006;48.584;9.186;2024-02-26T13:43:17;12.60;57.20
27567;DHT22;15006;48.584;9.186;2024-02-26T13:45:43;12.60;57.20
27567;DHT22;15006;48.584;9.186;2024-02-26T13:48:11;12.60;57.30
27567;DHT22;15006;48.584;9.186;2024-02-26T13:50:38;12.60;57.60
27567;DHT22;15006;48.584;9.186;2024-02-26T13:53:04;12.70;57.50
27567;DHT22;15006;48.584;9.186;2024-02-26T13:55:31;12.80;57.80
27567;DHT22;15006;48.584;9.186;2024-02-26T13:57:59;12.90;57.90
27567;DHT22;15006;48.584;9.186;2024-02-26T14:00:29;13.00;57.90
27567;DHT22;15006;48.584;9.186;2024-02-26T14:02:58;13.20;58.30
27567;DHT22;15006;48.584;9.186;2024-02-26T14:05:24;13.40;58.00
27567;DHT22;15006;48.584;9.186;2024-02-26T14:07:50;13.70;58.10
27567;DHT22;15006;48.584;9.186;2024-02-26T14:10:16;13.90;56.80
27567;DHT22;15006;48.584;9.186;2024-02-26T14:12:42;14.10;56.30
27567;DHT22;15006;48.584;9.186;2024-02-26T14:15:10;14.30;56.00
27567;DHT22;15006;48.584;9.186;2024-02-26T14:17:36;14.40;56.00
27567;DHT22;15006;48.584;9.186;2024-02-26T14:20:02;14.70;56.50
27567;DHT22;15006;48.584;9.186;2024-02-26T14:22:29;14.90;56.10
27567;DHT22;15006;48.584;9.186;2024-02-26T14:24:58;15.10;55.50
27567;DHT22;15006;48.584;9.186;2024-02-26T14:27:24;15.50;55.60
27567;DHT22;15006;48.584;9.186;2024-02-26T14:29:51;15.90;56.10
27567;DHT22;15006;48.584;9.186;2024-02-26T14:32:17;16.40;56.10
27567;DHT22;15006;48.584;9.186;2024-02-26T14:34:43;16.90;55.00
27567;DHT22;15006;48.584;9.186;2024-02-26T14:37:09;17.30;52.60
27567;DHT22;15006;48.584;9.186;2024-02-26T14:39:35;17.50;50.30
27567;DHT22;15006;48.584;9.186;2024-02-26T14:42:05;17.60;49.10
27567;DHT22;15006;48.584;9.186;2024-02-26T14:44:32;17.50;48.10
27567;DHT22;15006;48.584;9.186;2024-02-26T14:46:58;17.40;47.60
27567;DHT22;15006;48.584;9.186;2024-02-26T14:49:24;17.20;47.00
27567;DHT22;15006;48.584;9.186;2024-02-26T14:51:50;17.00;47.40
27567;DHT22;15006;48.584;9.186;2024-02-26T14:54:16;16.70;47.30
27567;DHT22;15006;48.584;9.186;2024-02-26T14:56:42;16.40;47.20
27567;DHT22;15006;48.584;9.186;2024-02-26T14:59:08;16.10;47.30
27567;DHT22;15006;48.584;9.186;2024-02-26T15:01:34;15.70;47.80
27567;DHT22;15006;48.584;9.186;2024-02-26T15:04:01;15.40;48.20
27567;DHT22;15006;48.584;9.186;2024-02-26T15:06:27;15.20;48.30
27567;DHT22;15006;48.584;9.186;2024-02-26T15:08:53;14.90;48.50
27567;DHT22;15006;48.584;9.186;2024-02-26T15:11:19;14.60;48.80
27567;DHT22;15006;48.584;9.186;2024-02-26T15:13:45;14.30;49.20
27567;DHT22;15006;48.584;9.186;2024-02-26T15:16:21;14.10;49.70
27567;DHT22;15006;48.584;9.186;2024-02-26T15:18:47;13.80;49.70
27567;DHT22;15006;48.584;9.186;2024-02-26T15:21:13;13.50;50.40
27567;DHT22;15006;48.584;9.186;2024-02-26T15:23:43;13.30;50.90
27567;DHT22;15006;48.584;9.186;2024-02-26T15:26:10;13.00;51.40
27567;DHT22;15006;48.584;9.186;2024-02-26T15:28:36;12.80;52.20
27567;DHT22;15006;48.584;9.186;2024-02-26T15:31:02;12.60;52.70
27567;DHT22;15006;48.584;9.186;2024-02-26T15:33:28;12.50;53.00
27567;DHT22;15006;48.584;9.186;2024-02-26T15:35:54;12.30;53.10
27567;DHT22;15006;48.584;9.186;2024-02-26T15:38:20;12.10;53.50
27567;DHT22;15006;48.584;9.186;2024-02-26T15:40:46;11.90;53.90
27567;DHT22;15006;48.584;9.186;2024-02-26T15:43:13;11.80;54.40
27567;DHT22;15006;48.584;9.186;2024-02-26T15:45:40;11.60;54.90
27567;DHT22;15006;48.584;9.186;2024-02-26T15:48:07;11.40;55.20
27567;DHT22;15006;48.584;9.186;2024-02-26T15:50:34;11.30;55.40
27567;DHT22;15006;48.584;9.186;2024-02-26T15:53:00;11.20;55.40